Time;durP1;ratioP1;P1;durP2;ratioP2;P2;SDS_P1;SDS_P2;PMS_P1;PMS_P2;Temp;Humidity;BMP_temperature;BMP_pressure;BME280_temperature;BME280_humidity;BME280_pressure;Samples;Min_cycle;Max_cycle;Signal;HPM_P1;HPM_P2
2023/06/24 00:02:51;;;;;;;33.03;16.65;;;25.90;84.80;;;;;;6204636;28;85105;-69
2023/06/24 00:05:56;;;;;;;30.90;16.83;;;25.90;84.90;;;;;;6199259;28;83993;-69
2023/06/24 00:09:01;;;;;;;25.27;13.45;;;25.90;85.20;;;;;;6200632;28;82993;-69
2023/06/24 00:12:03;;;;;;;22.27;11.60;;;25.90;85.40;;;;;;6203305;28;84068;-69
2023/06/24 00:15:07;;;;;;;16.65;9.40;;;25.90;85.50;;;;;;6208370;28;83639;-69
2023/06/24 00:18:09;;;;;;;16.75;8.48;;;25.90;85.50;;;;;;6207545;28;84724;-69
2023/06/24 00:21:12;;;;;;;14.88;8.02;;;25.90;85.10;;;;;;6209288;28;84048;-69
2023/06/24 00:24:14;;;;;;;16.65;8.50;;;25.90;85.10;;;;;;6198320;28;85197;-69
2023/06/24 00:27:16;;;;;;;14.82;7.85;;;25.90;85.10;;;;;;6204642;28;84107;-69
2023/06/24 00:30:18;;;;;;;13.95;7.80;;;25.90;85.10;;;;;;6203148;28;84122;-68
2023/06/24 00:33:21;;;;;;;12.82;6.88;;;25.90;85.10;;;;;;6205238;28;82937;-69
2023/06/24 00:36:24;;;;;;;13.13;7.20;;;25.80;85.00;;;;;;6212581;28;83963;-69
2023/06/24 00:39:26;;;;;;;12.25;7.38;;;25.90;85.10;;;;;;6213881;28;84047;-69
2023/06/24 00:42:28;;;;;;;11.43;6.68;;;25.90;85.20;;;;;;6209401;28;84421;-69
2023/06/24 00:45:31;;;;;;;10.80;6.00;;;25.90;85.20;;;;;;6208146;28;84604;-69
2023/06/24 00:48:33;;;;;;;9.65;5.68;;;25.80;85.30;;;;;;6200226;28;84265;-70
2023/06/24 00:51:36;;;;;;;9.90;5.88;;;25.80;85.40;;;;;;6227368;28;84309;-69
2023/06/24 00:54:38;;;;;;;9.40;5.15;;;25.80;85.40;;;;;;6223184;28;83879;-69
2023/06/24 00:57:40;;;;;;;8.75;5.18;;;25.80;85.40;;;;;;6209605;28;84116;-69
2023/06/24 01:00:43;;;;;;;8.38;5.20;;;25.80;85.50;;;;;;6210528;28;84213;-69
2023/06/24 01:03:45;;;;;;;7.40;5.03;;;25.80;85.40;;;;;;6191698;28;83996;-69
2023/06/24 01:06:50;;;;;;;6.15;4.22;;;25.80;85.40;;;;;;6224784;28;83337;-69
2023/06/24 01:09:52;;;;;;;7.97;4.40;;;25.80;85.50;;;;;;6213264;28;84077;-69
2023/06/24 01:12:54;;;;;;;5.55;4.18;;;25.80;85.50;;;;;;6225488;28;84135;-69
2023/06/24 01:15:57;;;;;;;6.35;4.00;;;25.80;85.50;;;;;;6225000;28;82169;-69
2023/06/24 01:19:09;;;;;;;7.13;3.65;;;25.80;85.50;;;;;;6211408;28;83858;-69
2023/06/24 01:22:27;;;;;;;4.97;3.55;;;25.90;85.70;;;;;;6203522;28;83947;-69
2023/06/24 01:25:47;;;;;;;5.93;3.55;;;25.80;85.60;;;;;;6209531;28;85033;-70
2023/06/24 01:29:34;;;;;;;5.35;3.15;;;25.80;85.60;;;;;;6215185;28;83977;-70
2023/06/24 01:32:44;;;;;;;6.40;3.13;;;25.80;85.60;;;;;;6198420;28;83253;-70
2023/06/24 01:35:48;;;;;;;3.97;3.10;;;25.80;85.70;;;;;;6213153;28;84125;-70
2023/06/24 01:38:54;;;;;;;4.57;3.28;;;25.80;85.70;;;;;;6216849;28;83097;-69
2023/06/24 01:42:02;;;;;;;4.00;3.10;;;25.80;85.80;;;;;;6217180;28;84033;-70
2023/06/24 01:45:06;;;;;;;4.45;2.97;;;25.80;85.80;;;;;;6220290;28;83997;-70
2023/06/24 01:48:15;;;;;;;4.57;3.05;;;25.80;85.90;;;;;;6217364;28;82262;-69
2023/06/24 01:51:21;;;;;;;4.13;2.83;;;25.80;85.80;;;;;;6209986;28;84086;-70
2023/06/24 01:54:24;;;;;;;3.67;2.90;;;25.80;85.90;;;;;;6203364;28;83293;-70
2023/06/24 01:57:28;;;;;;;3.95;2.83;;;25.80;85.90;;;;;;6220294;28;84212;-70
2023/06/24 02:00:31;;;;;;;3.30;2.58;;;25.80;85.70;;;;;;6199303;28;84245;-70
2023/06/24 02:03:35;;;;;;;2.90;2.42;;;25.80;85.70;;;;;;6216477;28;84329;-70
2023/06/24 02:06:40;;;;;;;3.20;2.60;;;25.80;85.70;;;;;;6202725;28;83199;-70
2023/06/24 02:09:45;;;;;;;3.17;2.65;;;25.80;85.70;;;;;;6211209;28;84664;-70
2023/06/24 02:12:49;;;;;;;3.00;2.50;;;25.80;85.80;;;;;;6213881;28;84026;-70
2023/06/24 02:15:52;;;;;;;2.80;2.20;;;25.80;85.90;;;;;;6203271;28;84262;-70
2023/06/24 02:18:57;;;;;;;3.80;2.75;;;25.80;85.90;;;;;;6211022;28;83221;-70
2023/06/24 02:22:00;;;;;;;2.67;2.10;;;25.80;85.90;;;;;;6206811;28;84025;-70
2023/06/24 02:25:03;;;;;;;3.63;2.55;;;25.80;85.90;;;;;;6221478;28;84026;-70
2023/06/24 02:28:05;;;;;;;2.30;2.10;;;25.80;85.90;;;;;;6220652;28;84377;-70
2023/06/24 02:31:10;;;;;;;3.15;2.40;;;25.80;86.00;;;;;;6210308;28;86060;-70
2023/06/24 02:34:13;;;;;;;3.80;2.40;;;25.80;86.10;;;;;;6206369;28;82934;-70
2023/06/24 02:37:15;;;;;;;2.95;2.20;;;25.80;86.10;;;;;;6207296;28;82826;-70
2023/06/24 02:40:18;;;;;;;3.03;2.10;;;25.80;87.00;;;;;;6209730;28;84046;-70
2023/06/24 02:43:20;;;;;;;3.28;2.40;;;25.80;86.10;;;;;;6202316;28;84337;-70
2023/06/24 02:46:22;;;;;;;2.92;2.33;;;25.80;86.10;;;;;;6203344;28;84913;-70
2023/06/24 02:49:27;;;;;;;2.42;1.85;;;25.80;86.00;;;;;;6198583;28;83339;-70
2023/06/24 02:52:29;;;;;;;2.63;2.05;;;25.80;86.00;;;;;;6202455;28;84151;-70
2023/06/24 02:55:33;;;;;;;2.30;2.10;;;25.80;86.00;;;;;;6196577;28;83984;-70
2023/06/24 02:58:38;;;;;;;2.13;1.90;;;25.80;86.00;;;;;;6209554;28;84954;-70
2023/06/24 03:01:44;;;;;;;2.40;2.20;;;25.80;85.90;;;;;;6209855;28;82641;-70
2023/06/24 03:04:49;;;;;;;2.13;1.92;;;25.80;85.90;;;;;;6209684;28;83231;-70
2023/06/24 03:07:52;;;;;;;2.20;1.80;;;25.80;86.00;;;;;;6202777;28;84061;-70
2023/06/24 03:10:56;;;;;;;2.22;2.03;;;25.80;86.10;;;;;;6203104;28;84067;-71
2023/06/24 03:13:58;;;;;;;2.33;2.00;;;25.80;86.10;;;;;;6208068;28;84161;-70
2023/06/24 03:17:00;;;;;;;2.30;2.10;;;25.70;86.00;;;;;;6204769;28;84273;-70
2023/06/24 03:20:07;;;;;;;2.85;2.28;;;25.80;86.00;;;;;;6189789;28;83493;-70
2023/06/24 03:23:10;;;;;;;3.30;2.25;;;25.70;85.90;;;;;;6199596;28;84076;-70
2023/06/24 03:26:12;;;;;;;1.90;1.80;;;25.70;85.90;;;;;;6199040;28;82856;-69
2023/06/24 03:29:14;;;;;;;2.10;1.90;;;25.70;86.00;;;;;;6206051;28;85447;-70
2023/06/24 03:32:16;;;;;;;2.00;1.90;;;25.80;86.10;;;;;;6194798;28;83971;-69
2023/06/24 03:35:19;;;;;;;3.25;1.95;;;25.70;86.10;;;;;;6197296;28;82928;-70
2023/06/24 03:38:22;;;;;;;1.90;1.80;;;25.70;86.00;;;;;;6196714;28;84347;-69
2023/06/24 03:41:26;;;;;;;2.75;2.10;;;25.70;86.00;;;;;;6194111;28;84059;-69
2023/06/24 03:44:28;;;;;;;2.72;2.20;;;25.70;85.90;;;;;;6208324;28;83748;-70
2023/06/24 03:47:30;;;;;;;2.03;1.83;;;25.70;85.90;;;;;;6200812;28;83839;-69
2023/06/24 03:50:33;;;;;;;3.28;1.90;;;25.70;86.10;;;;;;6198895;28;83561;-70
2023/06/24 03:53:35;;;;;;;1.85;1.75;;;25.70;85.90;;;;;;6206970;28;84027;-69
2023/06/24 03:56:37;;;;;;;2.13;1.92;;;25.70;85.90;;;;;;6222118;28;82937;-70
2023/06/24 03:59:39;;;;;;;1.85;1.75;;;25.70;85.90;;;;;;6215170;28;84938;-70
2023/06/24 04:02:42;;;;;;;1.75;1.65;;;25.70;86.00;;;;;;6226497;28;84126;-69
2023/06/24 04:05:45;;;;;;;2.00;1.80;;;25.70;86.00;;;;;;6208641;28;83795;-70
2023/06/24 04:08:48;;;;;;;4.30;2.33;;;25.70;86.00;;;;;;6209187;28;84075;-70
2023/06/24 04:11:50;;;;;;;3.03;2.47;;;25.70;86.10;;;;;;6219986;28;84325;-68
2023/06/24 04:14:52;;;;;;;2.00;1.80;;;25.70;86.10;;;;;;6205241;28;84024;-69
2023/06/24 04:17:54;;;;;;;2.42;1.90;;;25.70;86.10;;;;;;6206357;28;87384;-69
2023/06/24 04:20:58;;;;;;;2.30;2.00;;;25.70;86.10;;;;;;6217044;28;83455;-70
2023/06/24 04:24:00;;;;;;;2.00;1.75;;;25.70;86.20;;;;;;6211957;28;83337;-70
2023/06/24 04:27:02;;;;;;;2.03;1.90;;;25.70;86.10;;;;;;6200316;28;84224;-70
2023/06/24 04:30:05;;;;;;;2.25;2.05;;;25.70;86.10;;;;;;6212504;28;85026;-70
2023/06/24 04:33:07;;;;;;;2.80;2.00;;;25.70;86.10;;;;;;6216065;28;84064;-69
2023/06/24 04:36:10;;;;;;;2.53;2.08;;;25.70;86.10;;;;;;6208992;28;84060;-69
2023/06/24 04:39:14;;;;;;;2.35;2.10;;;25.60;86.00;;;;;;6196853;28;83665;-69
2023/06/24 04:42:16;;;;;;;2.50;2.15;;;25.60;86.00;;;;;;6209118;28;84321;-70
2023/06/24 04:45:18;;;;;;;2.17;1.98;;;25.70;86.10;;;;;;6203675;28;84759;-69
2023/06/24 04:48:20;;;;;;;2.42;2.10;;;25.70;86.10;;;;;;6187926;28;84083;-70
2023/06/24 04:51:23;;;;;;;2.17;2.00;;;25.70;86.10;;;;;;6211185;28;82206;-70
2023/06/24 04:54:25;;;;;;;2.30;2.10;;;25.60;86.10;;;;;;6198572;28;84036;-70
2023/06/24 04:57:29;;;;;;;3.47;2.53;;;25.60;86.10;;;;;;6186561;28;84011;-70
2023/06/24 05:00:31;;;;;;;2.83;2.42;;;25.60;86.00;;;;;;6207188;28;84984;-70
2023/06/24 05:03:33;;;;;;;2.72;2.20;;;25.70;86.10;;;;;;6185567;28;82977;-70
2023/06/24 05:06:36;;;;;;;2.15;1.95;;;25.60;86.00;;;;;;6183776;28;84299;-70
2023/06/24 05:09:38;;;;;;;2.38;2.15;;;25.60;86.10;;;;;;6206513;28;83968;-70
2023/06/24 05:12:40;;;;;;;2.45;2.25;;;25.60;86.10;;;;;;6207673;28;84096;-70
2023/06/24 05:15:42;;;;;;;2.30;2.10;;;25.60;86.10;;;;;;6204153;28;84080;-69
2023/06/24 05:18:45;;;;;;;2.53;2.33;;;25.60;86.10;;;;;;6218993;28;84020;-69
2023/06/24 05:21:48;;;;;;;2.50;2.30;;;25.60;86.10;;;;;;6208277;28;82270;-70
2023/06/24 05:24:50;;;;;;;3.72;2.80;;;25.60;86.10;;;;;;6205543;28;84234;-69
2023/06/24 05:27:52;;;;;;;2.30;2.10;;;25.70;86.10;;;;;;6201880;28;84355;-69
2023/06/24 05:30:54;;;;;;;3.00;2.38;;;25.60;86.00;;;;;;6200425;28;84939;-69
2023/06/24 05:33:56;;;;;;;2.35;2.15;;;25.60;86.00;;;;;;6201383;28;84049;-69
2023/06/24 05:37:00;;;;;;;2.58;2.38;;;25.60;86.00;;;;;;6207770;28;84391;-70
2023/06/24 05:40:04;;;;;;;2.58;2.38;;;25.60;85.90;;;;;;6206876;28;83944;-69
2023/06/24 05:43:06;;;;;;;2.65;2.30;;;25.60;86.00;;;;;;6204551;28;83927;-69
2023/06/24 05:46:09;;;;;;;3.47;2.80;;;25.60;86.00;;;;;;6224363;28;83979;-69
2023/06/24 05:49:11;;;;;;;2.40;2.20;;;25.60;86.00;;;;;;6202749;28;83975;-69
2023/06/24 05:52:14;;;;;;;2.60;2.40;;;25.60;85.90;;;;;;6236394;28;82189;-68
2023/06/24 05:55:16;;;;;;;2.50;2.30;;;25.60;86.00;;;;;;6222788;28;84093;-69
2023/06/24 05:58:18;;;;;;;2.58;2.38;;;25.60;86.00;;;;;;6213733;28;84343;-69
2023/06/24 06:01:20;;;;;;;2.30;2.10;;;25.60;86.00;;;;;;6230278;28;85329;-69
2023/06/24 06:04:22;;;;;;;2.50;2.30;;;25.60;86.00;;;;;;6229900;28;84174;-70
2023/06/24 06:07:26;;;;;;;2.50;2.30;;;25.60;86.10;;;;;;6224454;28;85027;-69
2023/06/24 06:10:28;;;;;;;2.67;2.42;;;25.60;86.10;;;;;;6218044;28;82894;-70
2023/06/24 06:13:30;;;;;;;2.50;2.30;;;25.60;86.20;;;;;;6218748;28;84091;-69
2023/06/24 06:16:32;;;;;;;2.88;2.55;;;25.50;86.10;;;;;;6202560;28;84029;-69
2023/06/24 06:19:34;;;;;;;2.60;2.40;;;25.50;86.30;;;;;;6216784;28;83894;-69
2023/06/24 06:22:38;;;;;;;2.63;2.42;;;25.50;86.20;;;;;;6205162;28;83322;-70
2023/06/24 06:25:40;;;;;;;3.75;2.92;;;25.60;86.30;;;;;;6207155;28;84110;-69
2023/06/24 06:28:42;;;;;;;2.80;2.60;;;25.50;86.30;;;;;;6210662;28;83959;-70
2023/06/24 06:31:44;;;;;;;3.05;2.47;;;25.50;86.30;;;;;;6193205;28;84984;-70
2023/06/24 06:34:46;;;;;;;2.53;2.33;;;25.60;86.50;;;;;;6211616;28;84501;-70
2023/06/24 06:37:52;;;;;;;3.70;3.05;;;25.60;86.50;;;;;;6188942;28;85398;-69
2023/06/24 06:40:54;;;;;;;3.25;2.80;;;25.50;86.40;;;;;;6201633;28;83047;-69
2023/06/24 06:43:56;;;;;;;3.10;2.80;;;25.50;86.50;;;;;;6206532;28;84304;-70
2023/06/24 06:46:58;;;;;;;3.13;2.83;;;25.50;86.40;;;;;;6211380;28;83721;-69
2023/06/24 06:50:00;;;;;;;2.80;2.60;;;25.50;86.50;;;;;;6220877;28;84093;-70
2023/06/24 06:53:03;;;;;;;2.72;2.50;;;25.50;86.60;;;;;;6216713;28;83321;-70
2023/06/24 06:56:06;;;;;;;2.97;2.75;;;25.50;86.60;;;;;;6207086;28;84040;-70
2023/06/24 06:59:08;;;;;;;3.05;2.70;;;25.50;86.60;;;;;;6199677;28;84054;-69
2023/06/24 07:02:09;;;;;;;3.00;2.67;;;25.50;86.60;;;;;;6197917;28;83909;-69
2023/06/24 07:05:11;;;;;;;2.70;2.50;;;25.50;86.70;;;;;;6201812;28;84101;-69
2023/06/24 07:08:15;;;;;;;3.10;2.80;;;25.50;86.60;;;;;;6209567;28;84170;-69
2023/06/24 07:11:17;;;;;;;3.67;2.90;;;25.50;86.60;;;;;;6204157;28;84043;-69
2023/06/24 07:14:19;;;;;;;3.70;2.90;;;25.50;86.60;;;;;;6196410;28;83966;-69
2023/06/24 07:17:21;;;;;;;3.45;2.70;;;25.50;86.70;;;;;;6213089;28;83982;-70
2023/06/24 07:20:23;;;;;;;3.03;2.80;;;25.50;86.70;;;;;;6211272;28;84029;-69
2023/06/24 07:23:27;;;;;;;3.30;2.97;;;25.50;86.70;;;;;;6203111;28;83451;-71
2023/06/24 07:26:30;;;;;;;3.55;3.17;;;25.50;86.80;;;;;;6195462;28;83942;-70
2023/06/24 07:29:32;;;;;;;3.80;3.30;;;25.50;86.80;;;;;;6197712;28;83920;-70
2023/06/24 07:32:33;;;;;;;3.13;2.83;;;25.50;86.90;;;;;;6194411;28;86057;-70
2023/06/24 07:35:35;;;;;;;3.65;3.35;;;25.50;86.80;;;;;;6210245;28;84387;-70
2023/06/24 07:38:39;;;;;;;3.33;3.03;;;25.50;86.80;;;;;;6189924;28;84156;-69
2023/06/24 07:41:42;;;;;;;3.25;3.03;;;25.50;87.00;;;;;;6193234;28;83653;-71
2023/06/24 07:44:44;;;;;;;3.75;3.35;;;25.50;87.10;;;;;;6211084;28;84145;-70
2023/06/24 07:47:46;;;;;;;3.50;3.20;;;25.50;87.00;;;;;;6208931;28;83983;-70
2023/06/24 07:50:49;;;;;;;3.60;3.30;;;25.50;87.10;;;;;;6196565;28;84376;-70
2023/06/24 07:53:52;;;;;;;3.30;3.00;;;25.50;87.20;;;;;;6213002;28;82251;-70
2023/06/24 07:56:54;;;;;;;3.40;3.10;;;25.50;87.20;;;;;;6208113;28;84067;-70
2023/06/24 07:59:56;;;;;;;3.35;3.05;;;25.50;87.30;;;;;;6202613;28;84388;-69
2023/06/24 08:02:58;;;;;;;3.65;3.35;;;25.50;87.30;;;;;;6210271;28;84971;-69
2023/06/24 08:06:00;;;;;;;3.90;3.50;;;25.50;87.40;;;;;;6218443;28;84016;-69
2023/06/24 08:09:04;;;;;;;3.30;3.00;;;25.50;87.40;;;;;;6215716;28;84053;-68
2023/06/24 08:12:06;;;;;;;4.30;3.00;;;25.50;87.40;;;;;;6203554;28;82835;-68
2023/06/24 08:15:09;;;;;;;3.85;3.45;;;25.50;87.50;;;;;;6208847;28;84025;-67
2023/06/24 08:18:11;;;;;;;3.88;3.47;;;25.50;87.60;;;;;;6199710;28;84070;-68
2023/06/24 08:21:13;;;;;;;3.47;3.13;;;25.50;88.30;;;;;;6209581;28;83358;-69
2023/06/24 08:24:16;;;;;;;3.40;3.10;;;25.50;88.90;;;;;;6218366;28;84216;-69
2023/06/24 08:27:19;;;;;;;3.63;3.33;;;25.40;89.40;;;;;;6207414;28;84064;-69
2023/06/24 08:30:21;;;;;;;3.60;3.30;;;25.50;90.00;;;;;;6202540;28;83139;-68
2023/06/24 08:33:23;;;;;;;4.97;3.63;;;25.50;90.10;;;;;;6204868;28;86896;-70
2023/06/24 08:36:26;;;;;;;3.72;3.22;;;25.50;90.50;;;;;;6207818;28;82928;-69
2023/06/24 08:39:30;;;;;;;3.42;3.13;;;25.50;90.90;;;;;;6204693;28;84078;-69
2023/06/24 08:42:32;;;;;;;3.33;3.03;;;25.50;90.90;;;;;;6208935;28;83355;-69
2023/06/24 08:45:34;;;;;;;3.90;3.40;;;25.50;90.70;;;;;;6191222;28;83973;-68
2023/06/24 08:48:39;;;;;;;3.88;3.53;;;25.50;90.50;;;;;;6200735;28;84108;-68
2023/06/24 08:51:45;;;;;;;3.97;3.20;;;25.60;90.40;;;;;;6209352;28;83996;-69
2023/06/24 08:54:52;;;;;;;3.70;3.40;;;25.50;90.20;;;;;;6189256;28;83318;-69
2023/06/24 08:57:54;;;;;;;3.90;3.60;;;25.50;90.10;;;;;;6200651;28;83481;-69
2023/06/24 09:00:57;;;;;;;3.40;3.10;;;25.50;90.10;;;;;;6201911;28;83984;-69
2023/06/24 09:03:59;;;;;;;4.20;3.50;;;25.50;90.00;;;;;;6197076;28;84211;-70
2023/06/24 09:07:01;;;;;;;3.65;3.35;;;25.50;89.90;;;;;;6201618;28;84058;-70
2023/06/24 09:10:05;;;;;;;3.50;3.20;;;25.50;89.80;;;;;;6200215;28;84054;-69
2023/06/24 09:13:08;;;;;;;4.05;3.67;;;25.50;89.70;;;;;;6207182;28;84120;-71
2023/06/24 09:16:14;;;;;;;3.63;3.33;;;25.50;89.70;;;;;;6217315;28;84103;-70
2023/06/24 09:19:21;;;;;;;3.72;3.42;;;25.50;89.80;;;;;;6207494;28;84467;-69
2023/06/24 09:22:23;;;;;;;3.60;3.30;;;25.50;89.80;;;;;;6203761;28;83969;-68
2023/06/24 09:25:28;;;;;;;3.85;3.55;;;25.50;89.70;;;;;;6213390;28;83411;-68
2023/06/24 09:28:29;;;;;;;3.90;3.53;;;25.50;89.80;;;;;;6209986;28;84408;-67
2023/06/24 09:31:31;;;;;;;4.05;3.25;;;25.50;89.90;;;;;;6216136;28;84411;-68
2023/06/24 09:34:34;;;;;;;3.42;3.05;;;25.50;89.70;;;;;;6209600;28;84974;-68
2023/06/24 09:37:36;;;;;;;3.95;3.55;;;25.50;89.70;;;;;;6202011;28;82635;-68
2023/06/24 09:40:40;;;;;;;4.43;3.33;;;25.50;90.00;;;;;;6202018;28;84349;-68
2023/06/24 09:43:44;;;;;;;3.60;3.30;;;25.50;89.70;;;;;;6207392;28;84047;-68
2023/06/24 09:46:47;;;;;;;4.28;3.78;;;25.50;89.70;;;;;;6201615;28;84385;-69
2023/06/24 09:49:49;;;;;;;3.55;3.25;;;25.50;89.70;;;;;;6206183;28;83161;-68
2023/06/24 09:52:52;;;;;;;4.15;3.78;;;25.60;89.70;;;;;;6201253;28;84115;-68
2023/06/24 09:55:56;;;;;;;3.67;3.38;;;25.50;89.70;;;;;;6205128;28;82469;-67
2023/06/24 09:58:58;;;;;;;3.75;3.45;;;25.50;89.70;;;;;;6199045;28;84166;-68
2023/06/24 10:02:01;;;;;;;5.15;3.80;;;25.50;89.60;;;;;;6200778;28;83980;-67
2023/06/24 10:05:05;;;;;;;4.35;3.70;;;25.50;89.50;;;;;;6221817;28;85299;-68
2023/06/24 10:08:09;;;;;;;3.85;3.55;;;25.50;89.60;;;;;;6212482;28;84006;-67
2023/06/24 10:11:12;;;;;;;3.88;3.47;;;25.50;89.50;;;;;;6194976;28;83985;-68
2023/06/24 10:14:16;;;;;;;4.07;3.67;;;25.50;90.20;;;;;;6208684;28;84189;-68
2023/06/24 10:17:18;;;;;;;3.55;3.25;;;25.50;90.50;;;;;;6210616;28;84398;-67
2023/06/24 10:20:26;;;;;;;3.78;3.47;;;25.50;90.80;;;;;;6198028;28;84251;-68
2023/06/24 10:23:32;;;;;;;4.07;3.55;;;25.50;90.80;;;;;;6205078;28;82893;-67
2023/06/24 10:26:37;;;;;;;3.97;3.35;;;25.50;90.80;;;;;;6205370;28;83217;-67
2023/06/24 10:29:40;;;;;;;4.32;3.53;;;25.60;90.60;;;;;;6215696;28;84064;-66
2023/06/24 10:32:43;;;;;;;3.67;3.38;;;25.60;90.60;;;;;;6205364;28;84506;-67
2023/06/24 10:35:45;;;;;;;3.83;3.53;;;25.60;90.50;;;;;;6207968;28;84945;-67
2023/06/24 10:38:57;;;;;;;3.83;3.38;;;25.60;90.40;;;;;;6207988;28;84204;-67
2023/06/24 10:42:29;;;;;;;4.25;3.55;;;25.60;90.40;;;;;;6205401;28;83952;-67
2023/06/24 10:45:31;;;;;;;3.97;3.50;;;25.60;90.40;;;;;;6203843;28;84306;-67
2023/06/24 10:48:33;;;;;;;3.97;3.58;;;25.60;90.30;;;;;;6211283;28;84169;-67
2023/06/24 10:51:35;;;;;;;3.75;3.45;;;25.60;90.30;;;;;;6199991;28;84075;-67
2023/06/24 10:54:38;;;;;;;3.63;3.33;;;25.50;90.30;;;;;;6221599;28;84479;-67
2023/06/24 10:57:42;;;;;;;4.55;3.88;;;25.50;90.10;;;;;;6219077;28;83626;-67
2023/06/24 11:00:46;;;;;;;4.07;3.55;;;25.60;90.10;;;;;;6192846;28;84046;-67
2023/06/24 11:03:48;;;;;;;5.15;3.88;;;25.50;90.10;;;;;;6202373;28;84144;-67
2023/06/24 11:06:59;;;;;;;4.30;3.63;;;25.50;90.00;;;;;;6194385;28;84914;-67
2023/06/24 11:10:04;;;;;;;4.07;3.45;;;25.50;90.30;;;;;;6196296;28;84254;-69
2023/06/24 11:13:08;;;;;;;4.63;3.58;;;25.50;89.80;;;;;;6198992;28;84238;-69
2023/06/24 11:16:10;;;;;;;3.78;3.47;;;25.50;89.50;;;;;;6207041;28;84283;-68
2023/06/24 11:19:12;;;;;;;4.32;3.60;;;25.50;89.40;;;;;;6212930;28;83204;-68
2023/06/24 11:22:14;;;;;;;4.97;3.40;;;25.50;89.20;;;;;;6187111;28;84098;-68
2023/06/24 11:25:17;;;;;;;5.13;3.45;;;25.50;89.20;;;;;;6197026;28;83998;-68
2023/06/24 11:28:20;;;;;;;3.65;3.33;;;25.50;89.30;;;;;;6195944;28;83205;-68
2023/06/24 11:31:26;;;;;;;3.95;3.50;;;25.50;89.30;;;;;;6199162;28;84068;-67
2023/06/24 11:34:28;;;;;;;5.28;3.50;;;25.50;89.10;;;;;;6206085;28;84311;-65
2023/06/24 11:37:33;;;;;;;5.20;3.38;;;25.50;88.70;;;;;;6209317;28;85501;-66
2023/06/24 11:40:35;;;;;;;6.30;3.65;;;25.50;89.90;;;;;;6201310;28;83935;-68
2023/06/24 11:43:38;;;;;;;6.07;3.65;;;25.50;89.70;;;;;;6203323;28;83990;-68
2023/06/24 11:46:41;;;;;;;3.60;3.30;;;25.50;89.40;;;;;;6196732;28;84515;-68
2023/06/24 11:49:51;;;;;;;4.85;3.33;;;25.50;89.90;;;;;;6197489;28;83952;-68
2023/06/24 11:52:54;;;;;;;4.30;3.53;;;25.50;90.00;;;;;;6197878;28;84259;-67
2023/06/24 11:55:57;;;;;;;6.43;3.75;;;25.50;90.00;;;;;;6207746;28;83986;-68
2023/06/24 11:59:00;;;;;;;4.50;3.33;;;25.50;89.60;;;;;;6195767;28;82177;-68
2023/06/24 12:02:03;;;;;;;5.65;3.42;;;25.50;88.80;;;;;;6203558;28;84037;-68
2023/06/24 12:05:06;;;;;;;3.58;3.28;;;25.50;88.40;;;;;;6193052;28;84028;-68
2023/06/24 12:08:09;;;;;;;3.80;3.40;;;25.50;88.50;;;;;;6200360;28;85022;-68
2023/06/24 12:11:11;;;;;;;4.65;3.35;;;25.50;88.50;;;;;;6213386;28;85357;-69
2023/06/24 12:14:14;;;;;;;3.20;2.90;;;25.50;88.70;;;;;;6214703;28;83968;-68
2023/06/24 12:17:16;;;;;;;6.80;3.35;;;25.50;88.80;;;;;;6204152;28;84257;-68
2023/06/24 12:20:18;;;;;;;5.00;3.30;;;25.50;89.10;;;;;;6213627;28;84023;-68
2023/06/24 12:23:20;;;;;;;4.00;3.58;;;25.50;89.20;;;;;;6203110;28;83206;-67
2023/06/24 12:26:22;;;;;;;5.13;3.53;;;25.50;89.00;;;;;;6203699;28;84041;-68
2023/06/24 12:29:26;;;;;;;4.07;3.38;;;25.50;88.50;;;;;;6207494;28;81246;-68
2023/06/24 12:32:28;;;;;;;3.78;3.30;;;25.50;88.40;;;;;;6208112;28;84009;-68
2023/06/24 12:35:30;;;;;;;4.38;3.17;;;25.50;88.20;;;;;;6198185;28;84076;-68
2023/06/24 12:38:32;;;;;;;3.90;3.30;;;25.50;88.10;;;;;;6210215;28;85035;-68
2023/06/24 12:41:34;;;;;;;3.78;3.20;;;25.50;88.20;;;;;;6202210;28;83995;-68
2023/06/24 12:44:37;;;;;;;4.45;3.47;;;25.50;88.30;;;;;;6220577;28;84249;-68
2023/06/24 12:47:39;;;;;;;4.70;3.30;;;25.50;88.50;;;;;;6194130;28;84073;-68
2023/06/24 12:50:41;;;;;;;3.72;3.30;;;25.50;88.70;;;;;;6208772;28;84005;-68
2023/06/24 12:53:43;;;;;;;6.63;3.45;;;25.50;89.70;;;;;;6228663;28;83985;-68
2023/06/24 12:56:45;;;;;;;3.30;3.00;;;25.50;88.90;;;;;;6221031;28;83989;-68
2023/06/24 12:59:48;;;;;;;3.35;3.05;;;25.50;89.40;;;;;;6208545;28;83328;-68
2023/06/24 13:02:51;;;;;;;3.42;3.13;;;25.50;89.00;;;;;;6209641;28;82920;-67
2023/06/24 13:05:53;;;;;;;3.30;3.00;;;25.50;89.10;;;;;;6202628;28;84387;-68
2023/06/24 13:08:55;;;;;;;3.88;3.20;;;25.50;89.20;;;;;;6193290;28;84566;-67
2023/06/24 13:11:57;;;;;;;3.40;2.95;;;25.50;89.10;;;;;;6201392;28;84011;-67
2023/06/24 13:15:00;;;;;;;5.03;3.38;;;25.50;89.00;;;;;;6207976;28;84363;-66
2023/06/24 13:18:02;;;;;;;3.97;3.20;;;25.50;88.70;;;;;;6201202;28;83514;-67
2023/06/24 13:21:04;;;;;;;3.72;3.38;;;25.40;88.60;;;;;;6185949;28;83915;-67
2023/06/24 13:24:07;;;;;;;3.08;2.80;;;25.50;88.60;;;;;;6199150;28;84034;-67
2023/06/24 13:27:10;;;;;;;3.92;3.40;;;25.50;88.80;;;;;;6203161;28;84148;-68
2023/06/24 13:30:16;;;;;;;4.00;3.17;;;25.50;88.40;;;;;;6197926;28;83574;-67
2023/06/24 13:33:18;;;;;;;4.22;3.20;;;25.50;88.50;;;;;;6189019;28;84094;-67
2023/06/24 13:36:32;;;;;;;3.72;3.40;;;25.50;88.40;;;;;;6194509;28;84050;-68
2023/06/24 13:39:34;;;;;;;4.20;3.58;;;25.50;88.30;;;;;;6189444;28;84963;-68
2023/06/24 13:42:36;;;;;;;4.30;3.13;;;25.50;88.20;;;;;;6203391;28;84065;-69
2023/06/24 13:45:39;;;;;;;3.90;3.22;;;25.50;88.10;;;;;;6191830;28;82939;-68
2023/06/24 13:48:42;;;;;;;3.30;3.00;;;25.40;88.00;;;;;;6195807;28;83984;-68
2023/06/24 13:51:44;;;;;;;3.72;3.30;;;25.40;88.20;;;;;;6209743;28;84508;-69
2023/06/24 13:54:46;;;;;;;3.70;3.40;;;25.50;88.20;;;;;;6203365;28;84260;-68
2023/06/24 13:57:49;;;;;;;3.67;3.38;;;25.50;88.00;;;;;;6192106;28;83953;-69
2023/06/24 14:00:52;;;;;;;4.32;3.28;;;25.50;87.80;;;;;;6193843;28;83266;-68
2023/06/24 14:03:55;;;;;;;4.10;3.70;;;25.50;88.20;;;;;;6198798;28;84027;-68
2023/06/24 14:06:57;;;;;;;3.78;3.47;;;25.50;88.00;;;;;;6194489;28;84499;-68
2023/06/24 14:09:59;;;;;;;3.50;3.20;;;25.50;88.20;;;;;;6232304;28;83553;-69
2023/06/24 14:13:01;;;;;;;3.72;3.42;;;25.40;88.40;;;;;;6196979;28;84038;-68
2023/06/24 14:16:05;;;;;;;3.88;3.50;;;25.40;88.30;;;;;;6219501;28;83839;-69
2023/06/24 14:19:08;;;;;;;3.97;3.67;;;25.40;88.10;;;;;;6209287;28;86518;-69
2023/06/24 14:22:10;;;;;;;3.80;3.50;;;25.40;88.30;;;;;;6201290;28;83994;-69
2023/06/24 14:25:12;;;;;;;5.10;3.80;;;25.40;88.40;;;;;;6207295;28;83260;-69
2023/06/24 14:28:14;;;;;;;4.07;3.78;;;25.40;88.40;;;;;;6206993;28;83938;-68
2023/06/24 14:31:17;;;;;;;4.30;3.90;;;25.50;88.70;;;;;;6209014;28;83236;-68
2023/06/24 14:34:19;;;;;;;4.88;4.20;;;25.50;88.70;;;;;;6198265;28;84001;-68
2023/06/24 14:37:21;;;;;;;4.55;3.80;;;25.40;88.80;;;;;;6215179;28;84245;-68
2023/06/24 14:40:23;;;;;;;4.00;3.67;;;25.40;88.80;;;;;;6216591;28;84897;-67
2023/06/24 14:43:25;;;;;;;3.60;3.30;;;25.40;88.90;;;;;;6212996;28;84342;-68
2023/06/24 14:46:28;;;;;;;3.60;3.28;;;25.40;88.90;;;;;;6218581;28;84329;-68
2023/06/24 14:49:31;;;;;;;4.30;3.90;;;25.40;88.60;;;;;;6227771;28;84064;-69
2023/06/24 14:52:33;;;;;;;4.85;4.35;;;25.40;88.40;;;;;;6207336;28;84468;-68
2023/06/24 14:55:35;;;;;;;4.28;3.92;;;25.50;88.60;;;;;;6208795;28;84149;-69
2023/06/24 14:58:37;;;;;;;4.28;3.88;;;25.40;88.60;;;;;;6204952;28;84373;-69
2023/06/24 15:01:40;;;;;;;4.45;4.05;;;25.40;88.40;;;;;;6205414;28;84135;-69
2023/06/24 15:04:43;;;;;;;4.75;4.35;;;25.50;88.20;;;;;;6206694;28;84047;-68
2023/06/24 15:07:44;;;;;;;4.57;4.18;;;25.40;88.10;;;;;;6204514;28;84213;-68
2023/06/24 15:10:46;;;;;;;4.53;4.13;;;25.40;88.40;;;;;;6204473;28;84269;-69
2023/06/24 15:13:48;;;;;;;4.53;4.00;;;25.40;88.40;;;;;;6208475;28;82926;-69
2023/06/24 15:16:54;;;;;;;4.68;4.25;;;25.40;88.00;;;;;;6211279;28;85669;-68
2023/06/24 15:19:56;;;;;;;4.40;3.90;;;25.40;88.00;;;;;;6194889;28;84110;-69
2023/06/24 15:22:58;;;;;;;3.85;3.55;;;25.40;88.10;;;;;;6224340;28;84104;-69
2023/06/24 15:26:00;;;;;;;4.93;4.00;;;25.40;87.70;;;;;;6203599;28;83211;-68
2023/06/24 15:29:02;;;;;;;4.53;4.13;;;25.40;88.10;;;;;;6203939;28;84127;-68
2023/06/24 15:32:07;;;;;;;4.03;3.50;;;25.40;87.90;;;;;;6196823;28;82149;-69
2023/06/24 15:35:09;;;;;;;3.88;3.58;;;25.40;88.40;;;;;;6219304;28;84250;-70
2023/06/24 15:38:11;;;;;;;4.13;3.72;;;25.40;88.80;;;;;;6210514;28;84013;-69
2023/06/24 15:41:13;;;;;;;4.15;3.75;;;25.40;88.60;;;;;;6199523;28;85088;-69
2023/06/24 15:44:15;;;;;;;3.50;3.20;;;25.40;87.70;;;;;;6207645;28;84106;-69
2023/06/24 15:47:19;;;;;;;3.90;3.55;;;25.40;87.40;;;;;;6213531;28;84076;-69
2023/06/24 15:50:21;;;;;;;4.30;3.90;;;25.50;87.50;;;;;;6202348;28;84183;-69
2023/06/24 15:53:23;;;;;;;3.83;3.50;;;25.40;87.40;;;;;;6195125;28;84121;-69